createdAt,value
2018-09-17T04:00:36.668Z,87.44
2018-09-17T04:01:36.633Z,87.65
2018-09-17T04:02:36.655Z,87.44
2018-09-17T04:03:36.611Z,87.54
2018-09-17T04:04:36.599Z,87.54
2018-09-17T04:05:36.636Z,87.24
2018-09-17T04:06:36.578Z,87.54
2018-09-17T04:07:36.568Z,87.44
2018-09-17T04:08:36.554Z,87.03
2018-09-17T04:09:36.543Z,87.54
2018-09-17T04:10:36.560Z,87.85
2018-09-17T04:11:36.526Z,87.44
2018-09-17T04:12:36.511Z,86.93
2018-09-17T04:13:36.501Z,87.44
2018-09-17T04:14:36.484Z,87.44
2018-09-17T04:15:36.482Z,87.54
2018-09-17T04:16:36.481Z,87.44
2018-09-17T04:17:36.459Z,87.85
2018-09-17T04:18:36.442Z,87.85
2018-09-17T04:19:36.429Z,87.75
2018-09-17T04:20:36.431Z,87.85
2018-09-17T04:21:36.407Z,87.59
2018-09-17T04:22:36.395Z,87.85
2018-09-17T04:23:36.391Z,87.48
2018-09-17T04:24:36.380Z,87.65
2018-09-17T04:25:36.369Z,87.79
2018-09-17T04:26:36.348Z,87.38
2018-09-17T04:27:36.372Z,87.38
2018-09-17T04:28:36.325Z,87.90
2018-09-17T04:29:36.341Z,87.75
2018-09-17T04:30:36.325Z,87.85
2018-09-17T04:31:36.363Z,87.90
2018-09-17T04:32:36.279Z,87.38
2018-09-17T04:33:36.269Z,87.38
2018-09-17T04:34:36.255Z,87.48
2018-09-17T04:35:36.271Z,87.69
2018-09-17T04:36:36.233Z,87.99
2018-09-17T04:37:36.221Z,87.69
2018-09-17T04:38:36.211Z,87.90
2018-09-17T04:39:36.204Z,88.51
2018-09-17T04:40:36.198Z,87.90
2018-09-17T04:41:36.209Z,87.79
2018-09-17T04:42:36.164Z,88.10
2018-09-17T04:43:36.152Z,87.99
2018-09-17T04:44:36.141Z,87.99
2018-09-17T04:45:36.143Z,88.10
2018-09-17T04:46:36.127Z,87.90
2018-09-17T04:47:36.106Z,88.41
2018-09-17T04:48:36.097Z,88.41
2018-09-17T04:49:36.105Z,87.79
2018-09-17T04:50:36.081Z,87.90
2018-09-17T04:51:36.061Z,88.41
2018-09-17T04:52:36.054Z,87.99
2018-09-17T04:53:36.040Z,87.79
2018-09-17T04:54:36.026Z,87.79
2018-09-17T04:55:36.025Z,88.51
2018-09-17T04:56:36.000Z,88.20
2018-09-17T04:57:35.988Z,88.20
2018-09-17T04:58:35.978Z,88.20
2018-09-17T04:59:35.968Z,88.20
2018-09-17T05:00:35.963Z,88.20
2018-09-17T05:01:35.995Z,88.26
2018-09-17T05:02:35.929Z,88.31
2018-09-17T05:03:35.926Z,87.65
2018-09-17T05:04:35.908Z,87.85
2018-09-17T05:05:35.910Z,87.44
2018-09-17T05:06:35.919Z,88.17
2018-09-17T05:07:35.871Z,87.96
2018-09-17T05:08:35.860Z,87.96
2018-09-17T05:09:35.851Z,87.65
2018-09-17T05:10:35.854Z,87.75
2018-09-17T05:11:35.830Z,87.65
2018-09-17T05:12:35.814Z,87.44
2018-09-17T05:13:35.802Z,87.65
2018-09-17T05:14:35.800Z,87.54
2018-09-17T05:15:35.820Z,87.54
2018-09-17T05:16:35.774Z,87.03
2018-09-17T05:17:35.775Z,87.03
2018-09-17T05:18:35.747Z,87.24
2018-09-17T05:19:35.741Z,87.03
2018-09-17T05:20:35.796Z,87.27
2018-09-17T05:21:35.713Z,86.93
2018-09-17T05:22:35.706Z,87.65
2018-09-17T05:23:35.703Z,87.44
2018-09-17T05:24:35.678Z,87.24
2018-09-17T05:25:35.688Z,87.24
2018-09-17T05:26:35.655Z,87.54
2018-09-17T05:27:35.651Z,87.34
2018-09-17T05:28:35.642Z,87.65
2018-09-17T05:29:35.621Z,87.75
2018-09-17T05:30:35.624Z,88.26
2018-09-17T05:31:35.600Z,88.17
2018-09-17T05:32:35.591Z,88.17
2018-09-17T05:33:35.577Z,88.37
2018-09-17T05:34:35.570Z,87.96
2018-09-17T05:35:35.564Z,87.96
2018-09-17T05:36:35.546Z,87.65
2018-09-17T05:37:35.540Z,87.34
2018-09-17T05:38:35.527Z,87.44
2018-09-17T05:39:35.505Z,87.13
2018-09-17T05:40:35.494Z,87.24
2018-09-17T05:41:35.491Z,87.65
2018-09-17T05:42:35.471Z,87.85
2018-09-17T05:43:35.473Z,87.96
2018-09-17T05:44:35.480Z,87.85
2018-09-17T05:45:35.435Z,88.26
2018-09-17T05:46:35.425Z,87.75
2018-09-17T05:47:35.410Z,88.06
2018-09-17T05:48:35.429Z,87.65
2018-09-17T05:49:35.431Z,87.85
2018-09-17T05:50:35.380Z,88.47
2018-09-17T05:51:35.368Z,88.26
2018-09-17T05:52:35.360Z,88.37
2018-09-17T05:53:35.344Z,88.47
2018-09-17T05:54:35.353Z,88.68
2018-09-17T05:55:35.329Z,88.78
2018-09-17T05:56:35.314Z,88.78
2018-09-17T05:57:35.297Z,88.57
2018-09-17T05:58:35.286Z,88.47
2018-09-17T05:59:35.333Z,88.78
2018-09-17T06:00:35.263Z,89.09
2018-09-17T06:01:35.258Z,89.05
2018-09-17T06:02:35.237Z,88.57
2018-09-17T06:03:35.232Z,88.57
2018-09-17T06:04:35.288Z,88.47
2018-09-17T06:05:35.261Z,88.64
2018-09-17T06:06:35.192Z,88.33
2018-09-17T06:07:35.203Z,88.78
2018-09-17T06:08:35.175Z,88.53
2018-09-17T06:09:35.191Z,88.74
2018-09-17T06:10:35.150Z,88.84
2018-09-17T06:11:35.139Z,89.15
2018-09-17T06:12:35.127Z,88.74
2018-09-17T06:13:35.122Z,88.53
2018-09-17T06:14:35.171Z,89.01
2018-09-17T06:15:35.095Z,88.95
2018-09-17T06:16:35.081Z,88.84
2018-09-17T06:17:35.074Z,88.80
2018-09-17T06:18:35.114Z,89.22
2018-09-17T06:19:35.058Z,89.42
2018-09-17T06:20:35.043Z,88.80
2018-09-17T06:21:35.066Z,89.01
2018-09-17T06:22:35.039Z,88.80
2018-09-17T06:23:35.011Z,88.90
2018-09-17T06:24:35.003Z,88.49
2018-09-17T06:25:34.991Z,88.70
2018-09-17T06:26:35.050Z,88.76
2018-09-17T06:27:34.976Z,88.70
2018-09-17T06:28:34.962Z,88.66
2018-09-17T06:29:34.954Z,88.04
2018-09-17T06:30:34.967Z,87.73
2018-09-17T06:31:34.921Z,87.84
2018-09-17T06:32:34.903Z,88.04
2018-09-17T06:33:34.897Z,88.59
2018-09-17T06:34:34.896Z,89.01
2018-09-17T06:35:34.875Z,88.45
2018-09-17T06:36:34.868Z,89.17
2018-09-17T06:37:34.888Z,89.58
2018-09-17T06:38:34.841Z,89.48
2018-09-17T06:39:34.846Z,89.48
2018-09-17T06:40:34.856Z,89.38
2018-09-17T06:41:34.840Z,88.76
2018-09-17T06:42:34.838Z,89.28
2018-09-17T06:43:34.804Z,89.44
2018-09-17T06:44:34.797Z,89.23
2018-09-17T06:45:34.759Z,89.13
2018-09-17T06:46:34.787Z,89.34
2018-09-17T06:47:34.736Z,89.03
2018-09-17T06:48:34.728Z,88.82
2018-09-17T06:49:34.735Z,88.68
2018-09-17T06:50:34.707Z,89.29
2018-09-17T06:51:34.689Z,89.29
2018-09-17T06:52:34.681Z,87.77
2018-09-17T06:53:34.696Z,87.22
2018-09-17T06:54:34.668Z,86.66
2018-09-17T06:55:34.664Z,85.60
2018-09-17T06:56:34.633Z,84.95
2018-09-17T06:57:34.625Z,83.58
2018-09-17T06:58:34.615Z,83.78
2018-09-17T06:59:34.623Z,83.23
2018-09-17T07:00:34.589Z,82.78
2018-09-17T07:01:34.581Z,81.35
2018-09-17T07:02:34.571Z,81.31
2018-09-17T07:03:34.557Z,81.79
2018-09-17T07:04:34.550Z,81.03
2018-09-17T07:05:34.529Z,79.97
2018-09-17T07:06:34.518Z,80.14
2018-09-17T07:07:34.507Z,79.28
2018-09-17T07:08:34.496Z,80.00
2018-09-17T07:09:34.507Z,79.14
2018-09-17T07:10:34.472Z,79.21
2018-09-17T07:11:34.503Z,77.98
2018-09-17T07:12:34.447Z,78.46
2018-09-17T07:13:34.436Z,77.30
2018-09-17T07:14:34.436Z,76.45
2018-09-17T07:15:34.413Z,76.92
2018-09-17T07:16:34.402Z,75.87
2018-09-17T07:17:34.389Z,74.92
2018-09-17T07:18:34.381Z,73.91
2018-09-17T07:19:34.455Z,74.58
2018-09-17T07:20:34.357Z,74.34
2018-09-17T07:21:34.343Z,72.58
2018-09-17T07:22:34.410Z,72.99
2018-09-17T07:23:34.321Z,71.73
2018-09-17T07:24:34.499Z,71.91
2018-09-17T07:25:34.299Z,70.69
2018-09-17T07:26:34.296Z,70.96
2018-09-17T07:27:34.286Z,69.84
2018-09-17T07:28:34.265Z,70.93
2018-09-17T07:29:34.270Z,69.20
2018-09-17T07:30:34.241Z,70.01
2018-09-17T07:31:34.231Z,70.39
2018-09-17T07:32:34.253Z,69.27
2018-09-17T07:33:34.209Z,69.24
2018-09-17T07:34:34.207Z,69.44
2018-09-17T07:35:34.414Z,68.10
2018-09-17T07:36:34.215Z,68.06
2018-09-17T07:37:34.201Z,67.05
2018-09-17T07:38:34.152Z,66.21
2018-09-17T07:39:34.157Z,66.69
2018-09-17T07:40:34.131Z,64.56
2018-09-17T07:41:34.130Z,64.64
2018-09-17T07:42:34.110Z,65.11
2018-09-17T07:43:34.096Z,65.31
2018-09-17T07:44:34.142Z,62.65
2018-09-17T07:45:34.078Z,63.03
2018-09-17T07:46:34.064Z,63.90
2018-09-17T07:47:34.052Z,63.57
2018-09-17T07:48:34.039Z,62.34
2018-09-17T07:49:34.030Z,60.39
2018-09-17T07:50:34.031Z,60.77
2018-09-17T07:51:34.013Z,58.05
2018-09-17T07:52:33.993Z,58.95
2018-09-17T07:53:33.986Z,58.95
2018-09-17T07:54:33.974Z,60.53
2018-09-17T07:55:34.007Z,59.60
2018-09-17T07:56:33.957Z,59.20
2018-09-17T07:57:33.935Z,59.41
2018-09-17T07:58:33.926Z,58.67
2018-09-17T07:59:33.915Z,57.37
2018-09-17T08:00:33.915Z,58.37
2018-09-17T08:01:33.898Z,57.54
2018-09-17T08:02:33.879Z,56.84
2018-09-17T08:03:33.894Z,57.44
2018-09-17T08:04:33.872Z,56.30
2018-09-17T08:05:33.887Z,57.48
2018-09-17T08:06:33.838Z,56.48
2018-09-17T08:07:33.826Z,56.35
2018-09-17T08:08:33.814Z,56.65
2018-09-17T08:09:33.803Z,57.06
2018-09-17T08:10:33.812Z,56.65
2018-09-17T08:11:33.777Z,56.78
2018-09-17T08:12:33.767Z,56.65
2018-09-17T08:13:33.755Z,55.95
2018-09-17T08:14:33.744Z,56.45
2018-09-17T08:15:33.746Z,56.05
2018-09-17T08:16:33.723Z,56.45
2018-09-17T08:17:33.712Z,56.00
2018-09-17T08:18:33.700Z,54.07
2018-09-17T08:19:33.726Z,53.32
2018-09-17T08:20:33.694Z,53.39
2018-09-17T08:21:33.670Z,52.57
2018-09-17T08:22:33.656Z,51.54
2018-09-17T08:23:33.646Z,52.74
2018-09-17T08:24:33.667Z,52.39
2018-09-17T08:25:33.688Z,51.20
2018-09-17T08:26:33.616Z,52.17
2018-09-17T08:27:33.598Z,50.55
2018-09-17T08:28:33.588Z,48.85
2018-09-17T08:29:33.576Z,48.46
2018-09-17T08:30:33.584Z,48.58
2018-09-17T08:31:33.557Z,49.87
2018-09-17T08:32:33.541Z,49.87
2018-09-17T08:33:33.531Z,50.67
2018-09-17T08:34:33.521Z,51.25
2018-09-17T08:35:33.518Z,50.67
2018-09-17T08:36:33.502Z,49.57
2018-09-17T08:37:33.487Z,49.90
2018-09-17T08:38:33.477Z,50.40
2018-09-17T08:39:33.465Z,50.40
2018-09-17T08:40:33.464Z,50.00
2018-09-17T08:41:33.444Z,49.48
2018-09-17T08:42:33.434Z,49.77
2018-09-17T08:43:33.418Z,49.75
2018-09-17T08:44:33.404Z,50.13
2018-09-17T08:45:33.437Z,48.53
2018-09-17T08:46:33.421Z,50.02
2018-09-17T08:47:33.370Z,49.83
2018-09-17T08:48:33.360Z,49.70
2018-09-17T08:49:33.359Z,48.50
2018-09-17T08:50:33.351Z,47.91
2018-09-17T08:51:33.327Z,48.38
2018-09-17T08:52:33.315Z,48.79
2018-09-17T08:53:33.303Z,48.56
2018-09-17T08:54:33.327Z,48.56
2018-09-17T08:55:33.292Z,48.44
2018-09-17T08:56:33.268Z,47.94
2018-09-17T08:57:33.260Z,48.44
2018-09-17T08:58:33.248Z,48.94
2018-09-17T08:59:33.252Z,48.96
2018-09-17T09:00:33.234Z,49.38
2018-09-17T09:01:33.217Z,51.17
2018-09-17T09:02:33.202Z,50.68
2018-09-17T09:03:33.188Z,50.35
2018-09-17T09:04:33.181Z,49.83
2018-09-17T09:05:33.179Z,48.41
2018-09-17T09:06:33.175Z,49.21
2018-09-17T09:07:33.148Z,50.23
2018-09-17T09:08:33.132Z,49.85
2018-09-17T09:09:33.127Z,50.27
2018-09-17T09:10:33.121Z,51.59
2018-09-17T09:11:33.104Z,52.12
2018-09-17T09:12:33.099Z,52.62
2018-09-17T09:13:33.080Z,52.09
2018-09-17T09:14:33.065Z,52.22
2018-09-17T09:15:33.069Z,53.74
2018-09-17T09:16:33.043Z,54.39
2018-09-17T09:17:33.040Z,55.54
2018-09-17T09:18:33.025Z,55.66
2018-09-17T09:19:33.034Z,57.26
2018-09-17T09:20:33.014Z,58.00
2018-09-17T09:21:32.985Z,58.52
2018-09-17T09:22:32.976Z,58.42
2018-09-17T09:23:32.963Z,58.55
2018-09-17T09:24:32.953Z,58.85
2018-09-17T09:25:32.956Z,60.05
2018-09-17T09:26:32.933Z,61.35
2018-09-17T09:27:32.919Z,60.85
2018-09-17T09:28:32.906Z,62.22
2018-09-17T09:29:32.901Z,61.32
2018-09-17T09:30:32.894Z,63.02
2018-09-17T09:31:32.890Z,62.79
2018-09-17T09:32:32.868Z,62.96
2018-09-17T09:33:32.860Z,62.37
2018-09-17T09:34:32.838Z,61.96
2018-09-17T09:35:32.840Z,62.34
2018-09-17T09:36:32.818Z,62.53
2018-09-17T09:37:32.805Z,61.04
2018-09-17T09:38:32.800Z,60.74
2018-09-17T09:39:32.792Z,62.04
2018-09-17T09:40:32.782Z,60.03
2018-09-17T09:41:32.760Z,59.34
2018-09-17T09:42:32.752Z,61.51
2018-09-17T09:43:32.741Z,62.30
2018-09-17T09:44:32.731Z,61.87
2018-09-17T09:45:32.726Z,58.31
2018-09-17T09:46:32.708Z,59.11
2018-09-17T09:47:32.693Z,57.31
2018-09-17T09:48:32.681Z,57.14
2018-09-17T09:49:32.670Z,58.34
2018-09-17T09:50:32.659Z,59.34
2018-09-17T09:51:32.659Z,60.63
2018-09-17T09:52:32.642Z,60.63
2018-09-17T09:53:32.628Z,59.53
2018-09-17T09:54:32.613Z,60.46
2018-09-17T09:55:32.605Z,59.97
2018-09-17T09:56:32.605Z,59.74
2018-09-17T09:57:32.582Z,59.64
2018-09-17T09:58:32.647Z,59.64
2018-09-17T09:59:32.593Z,59.31
2018-09-17T10:00:32.548Z,61.80
2018-09-17T10:01:32.550Z,61.00
2018-09-17T10:02:32.522Z,60.58
2018-09-17T10:03:32.514Z,60.31
2018-09-17T10:04:32.502Z,58.81
2018-09-17T10:05:32.491Z,59.38
2018-09-17T10:06:32.497Z,58.58
2018-09-17T10:07:32.468Z,59.28
2018-09-17T10:08:32.454Z,57.15
2018-09-17T10:09:32.444Z,55.24
2018-09-17T10:10:32.433Z,58.33
2018-09-17T10:11:32.468Z,55.93
2018-09-17T10:12:32.413Z,55.11
2018-09-17T10:13:32.400Z,56.90
2018-09-17T10:14:32.391Z,56.90
2018-09-17T10:15:32.379Z,57.20
2018-09-17T10:16:32.376Z,54.41
2018-09-17T10:17:32.355Z,54.91
2018-09-17T10:18:32.396Z,55.21
2018-09-17T10:19:32.331Z,59.99
2018-09-17T10:20:32.322Z,60.39
2018-09-17T10:21:32.331Z,55.98
2018-09-17T10:22:32.302Z,55.18
2018-09-17T10:23:32.288Z,57.97
2018-09-17T10:24:32.273Z,56.98
2018-09-17T10:25:32.262Z,54.79
2018-09-17T10:26:32.264Z,54.86
2018-09-17T10:27:32.247Z,54.46
2018-09-17T10:28:32.227Z,55.85
2018-09-17T10:29:32.230Z,54.36
2018-09-17T10:30:32.207Z,54.53
2018-09-17T10:31:32.207Z,55.90
2018-09-17T10:32:32.184Z,54.53
2018-09-17T10:33:32.178Z,53.41
2018-09-17T10:34:32.163Z,54.80
2018-09-17T10:35:32.150Z,53.61
2018-09-17T10:36:32.151Z,54.28
2018-09-17T10:37:32.130Z,55.38
2018-09-17T10:38:32.117Z,53.19
2018-09-17T10:39:32.124Z,53.19
2018-09-17T10:40:32.096Z,53.51
2018-09-17T10:41:32.098Z,52.02
2018-09-17T10:42:32.073Z,53.58
2018-09-17T10:43:32.060Z,52.99
2018-09-17T10:44:32.051Z,56.37
2018-09-17T10:45:32.039Z,54.80
2018-09-17T10:46:32.038Z,54.71
2018-09-17T10:47:32.016Z,54.78
2018-09-17T10:48:32.006Z,54.28
2018-09-17T10:49:31.994Z,52.51
2018-09-17T10:50:31.981Z,52.81
2018-09-17T10:51:31.985Z,53.21
2018-09-17T10:52:31.962Z,53.14
2018-09-17T10:53:31.947Z,53.34
2018-09-17T10:54:31.937Z,53.44
2018-09-17T10:55:31.943Z,53.64
2018-09-17T10:56:31.925Z,54.63
2018-09-17T10:57:31.905Z,55.26
2018-09-17T10:58:31.900Z,54.16
2018-09-17T10:59:31.880Z,54.36
2018-09-17T11:00:31.896Z,54.36
2018-09-17T11:01:31.881Z,54.86
2018-09-17T11:02:31.850Z,54.96
2018-09-17T11:03:31.955Z,54.53
2018-09-17T11:04:31.898Z,52.54
2018-09-17T11:05:31.813Z,52.14
2018-09-17T11:06:32.050Z,53.04
2018-09-17T11:07:31.791Z,50.55
2018-09-17T11:08:31.780Z,51.07
2018-09-17T11:09:31.767Z,51.65
2018-09-17T11:10:31.755Z,51.67
2018-09-17T11:11:31.760Z,52.04
2018-09-17T11:12:31.736Z,53.14
2018-09-17T11:13:31.723Z,53.64
2018-09-17T11:14:31.799Z,54.73
2018-09-17T11:15:31.702Z,56.02
2018-09-17T11:16:31.705Z,56.75
2018-09-17T11:17:31.716Z,52.76
2018-09-17T11:18:31.668Z,52.86
2018-09-17T11:19:31.660Z,54.16
2018-09-17T11:20:31.645Z,51.07
2018-09-17T11:21:31.646Z,50.78
2018-09-17T11:22:31.639Z,50.78
2018-09-17T11:23:31.619Z,50.68
2018-09-17T11:24:31.601Z,52.37
2018-09-17T11:25:31.588Z,52.27
2018-09-17T11:26:31.589Z,53.14
2018-09-17T11:27:31.568Z,52.67
2018-09-17T11:28:31.555Z,52.37
2018-09-17T11:29:31.543Z,49.68
2018-09-17T11:30:31.535Z,47.56
2018-09-17T11:31:31.564Z,48.56
2018-09-17T11:32:31.509Z,47.77
2018-09-17T11:33:31.500Z,48.07
2018-09-17T11:34:31.489Z,47.96
2018-09-17T11:35:31.483Z,49.46
2018-09-17T11:36:31.480Z,53.64
2018-09-17T11:37:31.453Z,53.46
2018-09-17T11:38:31.444Z,53.36
2018-09-17T11:39:31.430Z,53.27
2018-09-17T11:40:31.419Z,52.07
2018-09-17T11:41:31.419Z,54.68
2018-09-17T11:42:31.398Z,51.29
2018-09-17T11:43:31.386Z,53.09
2018-09-17T11:44:31.375Z,52.89
2018-09-17T11:45:31.364Z,54.58
2018-09-17T11:46:31.365Z,55.18
2018-09-17T11:47:31.340Z,54.38
2018-09-17T11:48:31.337Z,48.93
2018-09-17T11:49:31.317Z,50.23
2018-09-17T11:50:31.307Z,48.11
2018-09-17T11:51:31.321Z,49.01
2018-09-17T11:52:31.288Z,50.10
2018-09-17T11:53:31.316Z,51.20
2018-09-17T11:54:31.274Z,52.99
2018-09-17T11:55:31.251Z,52.79
2018-09-17T11:56:31.241Z,50.40
2018-09-17T11:57:31.240Z,48.01
2018-09-17T11:58:31.221Z,46.42
2018-09-17T11:59:31.437Z,48.01
2018-09-17T12:00:31.197Z,49.01
2018-09-17T12:01:31.182Z,47.91
2018-09-17T12:02:31.404Z,46.09
2018-09-17T12:03:31.187Z,46.09
2018-09-17T12:04:31.150Z,46.37
2018-09-17T12:05:31.139Z,48.26
2018-09-17T12:06:31.143Z,47.86
2018-09-17T12:07:31.138Z,46.69
2018-09-17T12:08:31.105Z,48.76
2018-09-17T12:09:31.144Z,50.45
2018-09-17T12:10:31.085Z,51.17
2018-09-17T12:11:31.074Z,45.97
2018-09-17T12:12:31.075Z,46.20
2018-09-17T12:13:31.049Z,47.07
2018-09-17T12:14:31.039Z,50.57
2018-09-17T12:15:31.407Z,51.25
2018-09-17T12:16:31.016Z,45.30
2018-09-17T12:17:31.030Z,45.37
2018-09-17T12:18:30.993Z,45.67
2018-09-17T12:19:30.983Z,48.26
2018-09-17T12:20:30.971Z,49.36
2018-09-17T12:21:30.961Z,50.35
2018-09-17T12:22:30.962Z,50.65
2018-09-17T12:23:30.942Z,51.17
2018-09-17T12:24:30.926Z,51.37
2018-09-17T12:25:30.917Z,47.51
2018-09-17T12:26:30.906Z,45.22
2018-09-17T12:27:30.907Z,45.40
2018-09-17T12:28:30.885Z,44.31
2018-09-17T12:29:30.871Z,44.01
2018-09-17T12:30:30.862Z,43.30
2018-09-17T12:31:30.851Z,42.99
2018-09-17T12:32:30.852Z,42.37
2018-09-17T12:33:30.868Z,43.96
2018-09-17T12:34:30.815Z,46.95
2018-09-17T12:35:30.805Z,48.24
2018-09-17T12:36:30.794Z,46.97
2018-09-17T12:37:30.797Z,48.07
2018-09-17T12:38:30.772Z,45.67
2018-09-17T12:39:30.764Z,44.18
2018-09-17T12:40:30.759Z,44.38
2018-09-17T12:41:30.739Z,44.68
2018-09-17T12:42:30.737Z,47.77
2018-09-17T12:43:30.737Z,45.08
2018-09-17T12:44:30.702Z,46.57
2018-09-17T12:45:30.696Z,44.98
2018-09-17T12:46:30.681Z,47.17
2018-09-17T12:47:30.698Z,46.37
2018-09-17T12:48:30.677Z,46.08
2018-09-17T12:49:30.648Z,45.87
2018-09-17T12:50:30.651Z,47.17
2018-09-17T12:51:30.623Z,47.37
2018-09-17T12:52:31.000Z,46.77
2018-09-17T12:53:30.606Z,48.08
2018-09-17T12:54:30.602Z,48.68
2018-09-17T12:55:30.584Z,49.08
2018-09-17T12:56:30.573Z,51.29
2018-09-17T12:57:30.576Z,47.81
2018-09-17T12:58:30.578Z,50.80
2018-09-17T12:59:30.537Z,47.93
2018-09-17T13:00:30.527Z,51.62
2018-09-17T13:01:30.512Z,50.02
2018-09-17T13:02:30.526Z,47.53
2018-09-17T13:03:30.494Z,48.23
2018-09-17T13:04:30.481Z,51.22
2018-09-17T13:05:30.472Z,48.13
2018-09-17T13:06:30.460Z,51.72
2018-09-17T13:07:30.458Z,50.73
2018-09-17T13:08:30.449Z,47.16
2018-09-17T13:09:30.441Z,47.06
2018-09-17T13:10:30.411Z,48.05
2018-09-17T13:11:30.401Z,50.65
2018-09-17T13:12:30.424Z,52.25
2018-09-17T13:13:30.380Z,52.34
2018-09-17T13:14:30.366Z,51.35
2018-09-17T13:15:30.357Z,52.27
2018-09-17T13:16:30.346Z,48.68
2018-09-17T13:17:30.344Z,47.78
2018-09-17T13:18:30.323Z,46.86
2018-09-17T13:19:30.314Z,45.14
2018-09-17T13:20:30.300Z,43.82
2018-09-17T13:21:30.289Z,42.43
2018-09-17T13:22:30.320Z,43.52
2018-09-17T13:23:30.267Z,44.23
2018-09-17T13:24:30.256Z,42.43
2018-09-17T13:25:30.243Z,42.53
2018-09-17T13:26:30.235Z,42.73
2018-09-17T13:27:30.234Z,42.81
2018-09-17T13:28:30.216Z,42.41
2018-09-17T13:29:30.203Z,42.81
2018-09-17T13:30:30.197Z,44.12
2018-09-17T13:31:30.181Z,45.40
2018-09-17T13:32:30.178Z,45.42
2018-09-17T13:33:30.156Z,47.11
2018-09-17T13:34:30.155Z,47.61
2018-09-17T13:35:30.137Z,48.11
2018-09-17T13:36:30.124Z,48.03
2018-09-17T13:37:30.119Z,50.43
2018-09-17T13:38:30.099Z,47.74
2018-09-17T13:39:30.093Z,49.43
2018-09-17T13:40:30.084Z,47.86
2018-09-17T13:41:30.070Z,49.48
2018-09-17T13:42:30.094Z,52.25
2018-09-17T13:43:30.076Z,49.08
2018-09-17T13:44:30.133Z,50.77
2018-09-17T13:45:30.023Z,46.88
2018-09-17T13:46:30.021Z,48.20
2018-09-17T13:47:30.045Z,49.00
2018-09-17T13:48:30.015Z,50.79
2018-09-17T13:49:29.995Z,52.29
2018-09-17T13:50:29.983Z,48.20
2018-09-17T13:51:29.954Z,50.49
2018-09-17T13:52:29.987Z,48.02
2018-09-17T13:53:30.078Z,46.61
2018-09-17T13:54:29.924Z,50.20
2018-09-17T13:55:29.920Z,48.60
2018-09-17T13:56:29.915Z,49.80
2018-09-17T13:57:29.964Z,46.83
2018-09-17T13:58:29.873Z,47.72
2018-09-17T13:59:29.864Z,46.92
2018-09-17T14:00:29.859Z,46.92
2018-09-17T14:01:29.839Z,46.31
2018-09-17T14:02:29.832Z,45.31
2018-09-17T14:03:29.852Z,46.08
2018-09-17T14:04:30.020Z,44.09
2018-09-17T14:05:29.820Z,48.08
2018-09-17T14:06:29.805Z,46.88
2018-09-17T14:07:29.794Z,48.48
2018-09-17T14:08:29.774Z,46.88
2018-09-17T14:09:29.749Z,46.98
2018-09-17T14:10:29.739Z,48.28
2018-09-17T14:11:29.731Z,44.91
2018-09-17T14:12:29.717Z,42.79
2018-09-17T14:13:29.717Z,45.48
2018-09-17T14:14:29.711Z,47.08
2018-09-17T14:15:29.683Z,40.30
2018-09-17T14:16:29.695Z,42.89
2018-09-17T14:17:29.669Z,43.89
2018-09-17T14:18:29.687Z,46.48
2018-09-17T14:19:29.647Z,48.28
2018-09-17T14:20:29.633Z,48.20
2018-09-17T14:21:29.650Z,49.10
2018-09-17T14:22:29.623Z,49.30
2018-09-17T14:23:29.605Z,48.30
2018-09-17T14:24:29.723Z,47.72
2018-09-17T14:25:29.667Z,46.43
2018-09-17T14:26:29.560Z,48.35
2018-09-17T14:27:29.552Z,49.65
2018-09-17T14:28:29.556Z,48.05
2018-09-17T14:29:29.528Z,46.15
2018-09-17T14:30:29.516Z,47.45
2018-09-17T14:31:29.504Z,48.25
2018-09-17T14:32:29.494Z,46.15
2018-09-17T14:33:29.493Z,42.76
2018-09-17T14:34:29.492Z,40.95
2018-09-17T14:35:29.570Z,39.86
2018-09-17T14:36:29.447Z,39.14
2018-09-17T14:37:29.471Z,47.83
2018-09-17T14:38:29.461Z,44.43
2018-09-17T14:39:29.417Z,46.43
2018-09-17T14:40:29.442Z,46.53
2018-09-17T14:41:29.422Z,46.23
2018-09-17T14:42:29.398Z,47.05
2018-09-17T14:43:29.436Z,47.85
2018-09-17T14:44:29.359Z,45.25
2018-09-17T14:45:29.347Z,45.75
2018-09-17T14:46:29.622Z,45.37
2018-09-17T14:47:29.363Z,46.47
2018-09-17T14:48:29.325Z,44.87
2018-09-17T14:49:29.303Z,44.97
2018-09-17T14:50:29.307Z,48.27
2018-09-17T14:51:29.285Z,47.60
2018-09-17T14:52:29.386Z,47.87
2018-09-17T14:53:29.330Z,44.37
2018-09-17T14:54:29.338Z,46.37
2018-09-17T14:55:29.233Z,46.67
2018-09-17T14:56:29.250Z,46.97
2018-09-17T15:01:59.092Z,45.20
2018-09-17T15:02:59.077Z,46.69
2018-09-17T15:03:59.050Z,49.99
2018-09-17T15:04:59.059Z,48.19
2018-09-17T15:05:59.020Z,51.20
2018-09-17T15:06:59.003Z,51.20
2018-09-17T15:07:59.065Z,52.49
2018-09-17T15:08:58.995Z,53.22
2018-09-17T15:09:59.032Z,51.52
2018-09-17T15:10:58.984Z,47.61
2018-09-17T15:11:58.956Z,51.42
2018-09-17T15:12:58.964Z,55.02
2018-09-17T15:13:58.984Z,56.35
2018-09-17T15:14:58.990Z,57.15
2018-09-17T15:15:58.921Z,53.44
2018-09-17T15:16:58.913Z,54.55
2018-09-17T15:17:58.881Z,53.74
2018-09-17T15:18:58.904Z,53.07
2018-09-17T15:19:58.860Z,53.27
2018-09-17T15:20:58.850Z,54.67
2018-09-17T15:21:58.862Z,55.67
2018-09-17T15:22:58.826Z,54.87
2018-09-17T15:23:58.851Z,57.37
2018-09-17T15:24:58.820Z,58.07
2018-09-17T15:25:58.798Z,58.78
2018-09-17T15:26:58.782Z,56.70
2018-09-17T15:27:58.802Z,57.60
2018-09-17T15:28:58.779Z,57.40
2018-09-17T15:29:58.751Z,58.43
2018-09-17T15:30:58.804Z,56.23
2018-09-17T15:31:58.766Z,57.93
2018-09-17T15:32:58.728Z,59.83
2018-09-17T15:33:58.791Z,59.13
2018-09-17T15:34:58.692Z,61.04
2018-09-17T15:35:58.679Z,58.83
2018-09-17T15:36:58.793Z,56.33
2018-09-17T15:37:58.693Z,55.63
2018-09-17T15:38:58.660Z,56.15
2018-09-17T15:39:58.656Z,59.96
2018-09-17T15:40:58.647Z,60.47
2018-09-17T15:41:58.613Z,60.57
2018-09-17T15:42:58.602Z,60.27
2018-09-17T15:43:58.630Z,59.56
2018-09-17T15:44:58.584Z,57.56
2018-09-17T15:45:58.593Z,59.06
2018-09-17T15:46:58.631Z,60.47
2018-09-17T15:47:58.548Z,60.69
2018-09-17T15:48:58.549Z,61.30
2018-09-17T15:49:58.628Z,60.80
2018-09-17T15:50:58.513Z,59.69
2018-09-17T15:51:58.653Z,59.59
2018-09-17T15:52:58.489Z,60.69
2018-09-17T15:53:58.489Z,60.10
2018-09-17T15:54:58.467Z,60.60
2018-09-17T15:55:58.609Z,59.59
2018-09-17T15:56:58.445Z,60.39
2018-09-17T15:57:58.558Z,61.30
2018-09-17T15:58:58.432Z,62.30
2018-09-17T15:59:58.410Z,62.73
2018-09-17T16:00:58.401Z,63.33
2018-09-17T16:01:58.393Z,65.54
2018-09-17T16:02:58.477Z,64.84
2018-09-17T16:03:58.377Z,65.14
2018-09-17T16:04:58.354Z,63.93
2018-09-17T16:05:58.350Z,64.47
2018-09-17T16:06:58.340Z,65.47
2018-09-17T16:07:58.326Z,66.28
2018-09-17T16:08:58.334Z,64.87
2018-09-17T16:09:58.300Z,64.90
2018-09-17T16:10:58.287Z,65.80
2018-09-17T16:11:58.281Z,65.60
2018-09-17T16:12:58.268Z,65.70
2018-09-17T16:13:58.324Z,66.14
2018-09-17T16:14:58.242Z,66.44
2018-09-17T16:15:58.232Z,67.94
2018-09-17T16:16:58.221Z,68.15
2018-09-17T16:17:58.213Z,68.21
2018-09-17T16:18:58.210Z,67.24
2018-09-17T16:19:58.199Z,66.34
2018-09-17T16:20:58.177Z,66.34
2018-09-17T16:21:58.174Z,66.64
2018-09-17T16:22:58.153Z,66.64
2018-09-17T16:23:58.179Z,66.34
2018-09-17T16:24:58.185Z,67.88
2018-09-17T16:25:58.120Z,67.78
2018-09-17T16:26:58.111Z,68.59
2018-09-17T16:27:58.100Z,66.57
2018-09-17T16:28:58.140Z,66.57
2018-09-17T16:29:58.076Z,67.38
2018-09-17T16:30:58.071Z,68.08
2018-09-17T16:31:58.052Z,68.68
2018-09-17T16:32:58.043Z,69.09
2018-09-17T16:33:58.050Z,68.78
2018-09-17T16:34:58.023Z,69.49
2018-09-17T16:35:58.042Z,69.49
2018-09-17T16:36:57.999Z,68.82
2018-09-17T16:37:57.996Z,68.62
2018-09-17T16:38:57.987Z,69.22
2018-09-17T16:39:57.963Z,68.62
2018-09-17T16:40:57.952Z,67.61
2018-09-17T16:41:57.940Z,68.51
2018-09-17T16:42:57.930Z,69.52
2018-09-17T16:43:57.929Z,68.91
2018-09-17T16:44:57.909Z,68.82
2018-09-17T16:45:57.898Z,66.80
2018-09-17T16:46:57.936Z,67.64
2018-09-17T16:47:57.874Z,67.74
2018-09-17T16:48:57.880Z,68.65
2018-09-17T16:49:57.853Z,68.55
2018-09-17T16:50:57.844Z,69.05
2018-09-17T16:51:57.884Z,68.85
2018-09-17T16:52:57.870Z,68.75
2018-09-17T16:53:57.825Z,66.56
2018-09-17T16:54:57.796Z,66.87
2018-09-17T16:55:57.787Z,67.17
2018-09-17T16:56:57.776Z,66.87